sensor_id;sensor_type;location;lat;lon;timestamp;pressure;altitude;pressure_sealevel;temperature;humidity
60852;BME280;48553;50.766;2.900;2022-12-07T00:01:07;101349.41;;;4.65;88.00
60852;BME280;48553;50.766;2.900;2022-12-07T00:04:10;101336.94;;;4.64;88.28
60852;BME280;48553;50.766;2.900;2022-12-07T00:07:11;101336.09;;;4.69;88.13
60852;BME280;48553;50.766;2.900;2022-12-07T00:10:11;101342.34;;;4.69;88.36
60852;BME280;48553;50.766;2.900;2022-12-07T00:13:12;101336.91;;;4.69;88.21
60852;BME280;48553;50.766;2.900;2022-12-07T00:16:18;101340.94;;;4.72;88.14
60852;BME280;48553;50.766;2.900;2022-12-07T00:19:19;101332.28;;;4.70;88.50
60852;BME280;48553;50.766;2.900;2022-12-07T00:22:19;101340.94;;;4.72;88.54
60852;BME280;48553;50.766;2.900;2022-12-07T00:25:20;101324.66;;;4.72;88.46
60852;BME280;48553;50.766;2.900;2022-12-07T00:28:20;101325.47;;;4.72;88.48
60852;BME280;48553;50.766;2.900;2022-12-07T00:31:23;101314.59;;;4.72;88.52
60852;BME280;48553;50.766;2.900;2022-12-07T00:34:24;101324.13;;;4.70;88.80
60852;BME280;48553;50.766;2.900;2022-12-07T00:37:24;101319.22;;;4.72;88.60
60852;BME280;48553;50.766;2.900;2022-12-07T00:40:24;101320.03;;;4.72;88.61
60852;BME280;48553;50.766;2.900;2022-12-07T00:43:25;101321.13;;;4.71;88.79
60852;BME280;48553;50.766;2.900;2022-12-07T00:46:26;101318.44;;;4.71;89.10
60852;BME280;48553;50.766;2.900;2022-12-07T00:49:26;101324.38;;;4.73;89.02
60852;BME280;48553;50.766;2.900;2022-12-07T00:52:27;101312.19;;;4.71;89.12
60852;BME280;48553;50.766;2.900;2022-12-07T00:55:27;101320.88;;;4.73;88.85
60852;BME280;48553;50.766;2.900;2022-12-07T00:58:28;101309.75;;;4.69;88.98
60852;BME280;48553;50.766;2.900;2022-12-07T01:01:30;101310.03;;;4.68;89.11
60852;BME280;48553;50.766;2.900;2022-12-07T01:04:33;101318.47;;;4.66;88.87
60852;BME280;48553;50.766;2.900;2022-12-07T01:07:34;101306.50;;;4.67;88.86
60852;BME280;48553;50.766;2.900;2022-12-07T01:10:34;101309.22;;;4.67;88.99
60852;BME280;48553;50.766;2.900;2022-12-07T01:13:35;101305.97;;;4.65;88.74
60852;BME280;48553;50.766;2.900;2022-12-07T01:16:36;101310.59;;;4.65;88.57
60852;BME280;48553;50.766;2.900;2022-12-07T01:19:38;101309.00;;;4.64;88.52
60852;BME280;48553;50.766;2.900;2022-12-07T01:22:40;101315.78;;;4.61;88.75
60852;BME280;48553;50.766;2.900;2022-12-07T01:25:41;101306.81;;;4.60;88.78
60852;BME280;48553;50.766;2.900;2022-12-07T01:28:42;101320.91;;;4.63;88.59
60852;BME280;48553;50.766;2.900;2022-12-07T01:31:42;101324.44;;;4.63;88.94
60852;BME280;48553;50.766;2.900;2022-12-07T01:34:42;101324.16;;;4.65;88.67
60852;BME280;48553;50.766;2.900;2022-12-07T01:37:43;101320.13;;;4.62;88.75
60852;BME280;48553;50.766;2.900;2022-12-07T01:40:43;101322.56;;;4.64;88.61
60852;BME280;48553;50.766;2.900;2022-12-07T01:47:12;101317.94;;;4.64;88.83
60852;BME280;48553;50.766;2.900;2022-12-07T01:50:13;101324.16;;;4.65;88.75
60852;BME280;48553;50.766;2.900;2022-12-07T01:53:15;101324.16;;;4.65;88.87
60852;BME280;48553;50.766;2.900;2022-12-07T01:56:19;101323.91;;;4.66;88.96
60852;BME280;48553;50.766;2.900;2022-12-07T01:59:23;101328.53;;;4.66;88.85
60852;BME280;48553;50.766;2.900;2022-12-07T02:02:35;101326.63;;;4.66;88.90
60852;BME280;48553;50.766;2.900;2022-12-07T02:05:38;101323.09;;;4.66;88.92
60852;BME280;48553;50.766;2.900;2022-12-07T02:08:41;101327.41;;;4.67;88.96
60852;BME280;48553;50.766;2.900;2022-12-07T02:11:42;101311.94;;;4.67;88.84
60852;BME280;48553;50.766;2.900;2022-12-07T02:14:42;101316.28;;;4.68;89.00
60852;BME280;48553;50.766;2.900;2022-12-07T02:21:12;101313.56;;;4.68;89.00
60852;BME280;48553;50.766;2.900;2022-12-07T02:28:01;101311.38;;;4.70;88.94
60852;BME280;48553;50.766;2.900;2022-12-07T02:31:10;101308.16;;;4.68;89.26
60852;BME280;48553;50.766;2.900;2022-12-07T02:34:35;101295.38;;;4.69;89.18
60852;BME280;48553;50.766;2.900;2022-12-07T02:38:08;101297.28;;;4.68;89.33
60852;BME280;48553;50.766;2.900;2022-12-07T02:44:14;101293.72;;;4.68;89.00
60852;BME280;48553;50.766;2.900;2022-12-07T02:47:19;101295.94;;;4.66;89.24
60852;BME280;48553;50.766;2.900;2022-12-07T02:50:21;101293.22;;;4.66;89.15
60852;BME280;48553;50.766;2.900;2022-12-07T02:53:38;101296.75;;;4.66;89.09
60852;BME280;48553;50.766;2.900;2022-12-07T03:00:05;101288.88;;;4.65;89.05
60852;BME280;48553;50.766;2.900;2022-12-07T03:03:10;101289.97;;;4.64;88.95
60852;BME280;48553;50.766;2.900;2022-12-07T03:09:21;101289.44;;;4.62;88.75
60852;BME280;48553;50.766;2.900;2022-12-07T03:12:32;101298.13;;;4.64;88.72
60852;BME280;48553;50.766;2.900;2022-12-07T03:19:18;101286.75;;;4.62;88.84
60852;BME280;48553;50.766;2.900;2022-12-07T03:22:21;101282.91;;;4.63;88.75
60852;BME280;48553;50.766;2.900;2022-12-07T03:25:23;101289.97;;;4.64;88.78
60852;BME280;48553;50.766;2.900;2022-12-07T03:28:27;101282.38;;;4.60;88.98
60852;BME280;48553;50.766;2.900;2022-12-07T03:31:33;101281.31;;;4.62;89.05
60852;BME280;48553;50.766;2.900;2022-12-07T03:35:02;101274.78;;;4.63;89.16
60852;BME280;48553;50.766;2.900;2022-12-07T03:38:28;101275.56;;;4.63;89.10
60852;BME280;48553;50.766;2.900;2022-12-07T03:41:32;101272.38;;;4.61;89.17
60852;BME280;48553;50.766;2.900;2022-12-07T03:44:34;101265.03;;;4.62;89.17
60852;BME280;48553;50.766;2.900;2022-12-07T03:50:57;101264.22;;;4.61;88.92
60852;BME280;48553;50.766;2.900;2022-12-07T03:57:07;101264.22;;;4.61;88.88
60852;BME280;48553;50.766;2.900;2022-12-07T04:00:10;101269.13;;;4.59;88.80
60852;BME280;48553;50.766;2.900;2022-12-07T04:03:11;101263.97;;;4.57;88.91
60852;BME280;48553;50.766;2.900;2022-12-07T04:06:11;101260.97;;;4.59;88.96
60852;BME280;48553;50.766;2.900;2022-12-07T04:09:12;101261.78;;;4.59;88.85
60852;BME280;48553;50.766;2.900;2022-12-07T04:12:14;101256.34;;;4.59;88.85
60852;BME280;48553;50.766;2.900;2022-12-07T04:15:15;101257.41;;;4.58;88.93
60852;BME280;48553;50.766;2.900;2022-12-07T04:18:15;101255.53;;;4.59;89.12
60852;BME280;48553;50.766;2.900;2022-12-07T04:21:16;101256.63;;;4.58;89.24
60852;BME280;48553;50.766;2.900;2022-12-07T04:24:16;101263.97;;;4.57;89.12
60852;BME280;48553;50.766;2.900;2022-12-07T04:27:17;101252.00;;;4.58;89.18
60852;BME280;48553;50.766;2.900;2022-12-07T04:30:17;101255.53;;;4.59;89.26
60852;BME280;48553;50.766;2.900;2022-12-07T04:33:18;101259.34;;;4.58;89.14
60852;BME280;48553;50.766;2.900;2022-12-07T04:36:18;101248.47;;;4.58;89.12
60852;BME280;48553;50.766;2.900;2022-12-07T04:39:27;101252.00;;;4.58;89.19
60852;BME280;48553;50.766;2.900;2022-12-07T04:42:28;101259.06;;;4.59;89.53
60852;BME280;48553;50.766;2.900;2022-12-07T04:45:29;101269.91;;;4.59;89.65
60852;BME280;48553;50.766;2.900;2022-12-07T04:48:29;101266.09;;;4.60;89.54
60852;BME280;48553;50.766;2.900;2022-12-07T04:51:30;101262.56;;;4.60;89.48
60852;BME280;48553;50.766;2.900;2022-12-07T04:54:30;101272.06;;;4.63;89.49
60852;BME280;48553;50.766;2.900;2022-12-07T04:57:30;101272.38;;;4.61;89.65
60852;BME280;48553;50.766;2.900;2022-12-07T05:00:31;101277.78;;;4.61;89.69
60852;BME280;48553;50.766;2.900;2022-12-07T05:03:31;101272.91;;;4.58;89.91
60852;BME280;48553;50.766;2.900;2022-12-07T05:06:32;101270.44;;;4.62;90.04
60852;BME280;48553;50.766;2.900;2022-12-07T05:09:32;101267.44;;;4.63;89.72
60852;BME280;48553;50.766;2.900;2022-12-07T05:12:33;101258.22;;;4.64;90.13
60852;BME280;48553;50.766;2.900;2022-12-07T05:15:33;101251.69;;;4.65;89.87
60852;BME280;48553;50.766;2.900;2022-12-07T05:18:33;101255.22;;;4.66;89.97
60852;BME280;48553;50.766;2.900;2022-12-07T05:21:35;101246.56;;;4.64;90.17
60852;BME280;48553;50.766;2.900;2022-12-07T05:24:35;101252.22;;;4.67;89.92
60852;BME280;48553;50.766;2.900;2022-12-07T05:27:36;101254.13;;;4.67;89.78
60852;BME280;48553;50.766;2.900;2022-12-07T05:30:36;101273.91;;;4.67;89.96
60852;BME280;48553;50.766;2.900;2022-12-07T05:33:36;101266.34;;;4.64;89.93
60852;BME280;48553;50.766;2.900;2022-12-07T05:36:37;101274.72;;;4.68;89.84
60852;BME280;48553;50.766;2.900;2022-12-07T05:39:37;101260.13;;;4.64;90.22
60852;BME280;48553;50.766;2.900;2022-12-07T05:42:41;101256.84;;;4.67;90.10
60852;BME280;48553;50.766;2.900;2022-12-07T05:45:42;101265.25;;;4.65;90.45
60852;BME280;48553;50.766;2.900;2022-12-07T05:48:42;101263.06;;;4.67;90.27
60852;BME280;48553;50.766;2.900;2022-12-07T05:51:42;101248.41;;;4.68;90.29
60852;BME280;48553;50.766;2.900;2022-12-07T05:54:43;101241.88;;;4.69;90.21
60852;BME280;48553;50.766;2.900;2022-12-07T05:57:43;101246.50;;;4.69;90.23
60852;BME280;48553;50.766;2.900;2022-12-07T06:01:04;101248.94;;;4.70;90.21
60852;BME280;48553;50.766;2.900;2022-12-07T06:04:04;101249.22;;;4.69;90.22
60852;BME280;48553;50.766;2.900;2022-12-07T06:07:05;101246.50;;;4.69;90.70
60852;BME280;48553;50.766;2.900;2022-12-07T06:10:06;101253.84;;;4.68;90.42
60852;BME280;48553;50.766;2.900;2022-12-07T06:13:08;101248.69;;;4.67;90.55
60852;BME280;48553;50.766;2.900;2022-12-07T06:16:08;101250.81;;;4.70;90.37
60852;BME280;48553;50.766;2.900;2022-12-07T06:19:09;101251.94;;;4.69;90.25
60852;BME280;48553;50.766;2.900;2022-12-07T06:22:10;101248.09;;;4.70;90.75
60852;BME280;48553;50.766;2.900;2022-12-07T06:25:11;101250.81;;;4.70;90.47
60852;BME280;48553;50.766;2.900;2022-12-07T06:28:12;101249.22;;;4.69;90.42
60852;BME280;48553;50.766;2.900;2022-12-07T06:31:12;101250.03;;;4.69;90.53
60852;BME280;48553;50.766;2.900;2022-12-07T06:34:15;101244.59;;;4.69;90.54
60852;BME280;48553;50.766;2.900;2022-12-07T06:37:16;101250.59;;;4.66;90.88
60852;BME280;48553;50.766;2.900;2022-12-07T06:40:17;101252.75;;;4.69;90.53
60852;BME280;48553;50.766;2.900;2022-12-07T06:43:17;101256.25;;;4.70;90.84
60852;BME280;48553;50.766;2.900;2022-12-07T06:46:18;101252.75;;;4.69;90.80
60852;BME280;48553;50.766;2.900;2022-12-07T06:49:18;101266.31;;;4.69;90.80
60852;BME280;48553;50.766;2.900;2022-12-07T06:52:18;101266.03;;;4.71;90.67
60852;BME280;48553;50.766;2.900;2022-12-07T06:55:19;101275.78;;;4.72;90.85
60852;BME280;48553;50.766;2.900;2022-12-07T06:58:20;101276.31;;;4.74;90.80
60852;BME280;48553;50.766;2.900;2022-12-07T07:01:20;101265.47;;;4.74;90.78
60852;BME280;48553;50.766;2.900;2022-12-07T07:04:20;101277.44;;;4.73;90.90
60852;BME280;48553;50.766;2.900;2022-12-07T07:07:21;101266.25;;;4.74;90.89
60852;BME280;48553;50.766;2.900;2022-12-07T07:10:21;101268.97;;;4.74;91.19
60852;BME280;48553;50.766;2.900;2022-12-07T07:13:22;101269.81;;;4.75;91.06
60852;BME280;48553;50.766;2.900;2022-12-07T07:16:23;101269.81;;;4.75;91.04
60852;BME280;48553;50.766;2.900;2022-12-07T07:19:24;101278.75;;;4.75;90.94
60852;BME280;48553;50.766;2.900;2022-12-07T07:22:24;101277.66;;;4.76;91.44
60852;BME280;48553;50.766;2.900;2022-12-07T07:25:24;101283.09;;;4.76;90.99
60852;BME280;48553;50.766;2.900;2022-12-07T07:28:25;101283.91;;;4.77;90.87
60852;BME280;48553;50.766;2.900;2022-12-07T07:31:25;101287.44;;;4.77;90.85
60852;BME280;48553;50.766;2.900;2022-12-07T07:34:25;101277.66;;;4.76;91.17
60852;BME280;48553;50.766;2.900;2022-12-07T07:37:26;101279.56;;;4.76;91.18
60852;BME280;48553;50.766;2.900;2022-12-07T07:40:27;101265.19;;;4.75;91.17
60852;BME280;48553;50.766;2.900;2022-12-07T07:43:29;101267.63;;;4.77;91.31
60852;BME280;48553;50.766;2.900;2022-12-07T07:46:29;101262.47;;;4.75;91.17
60852;BME280;48553;50.766;2.900;2022-12-07T07:49:30;101262.19;;;4.77;91.10
60852;BME280;48553;50.766;2.900;2022-12-07T07:52:31;101271.94;;;4.78;91.08
60852;BME280;48553;50.766;2.900;2022-12-07T07:55:31;101274.41;;;4.74;91.12
60852;BME280;48553;50.766;2.900;2022-12-07T07:58:31;101278.75;;;4.75;91.01
60852;BME280;48553;50.766;2.900;2022-12-07T08:01:32;101281.47;;;4.75;90.64
60852;BME280;48553;50.766;2.900;2022-12-07T08:04:32;101285.81;;;4.76;90.63
60852;BME280;48553;50.766;2.900;2022-12-07T08:07:33;101286.91;;;4.75;90.26
60852;BME280;48553;50.766;2.900;2022-12-07T08:10:33;101293.13;;;4.76;90.17
60852;BME280;48553;50.766;2.900;2022-12-07T08:13:35;101291.53;;;4.75;90.35
60852;BME280;48553;50.766;2.900;2022-12-07T08:16:37;101296.97;;;4.75;90.39
60852;BME280;48553;50.766;2.900;2022-12-07T08:19:38;101295.06;;;4.75;90.36
60852;BME280;48553;50.766;2.900;2022-12-07T08:22:38;101298.56;;;4.76;90.29
60852;BME280;48553;50.766;2.900;2022-12-07T08:25:39;101309.19;;;4.72;90.32
60852;BME280;48553;50.766;2.900;2022-12-07T08:28:39;101300.75;;;4.74;90.45
60852;BME280;48553;50.766;2.900;2022-12-07T08:31:40;101302.09;;;4.76;90.28
60852;BME280;48553;50.766;2.900;2022-12-07T08:34:40;101306.97;;;4.79;90.37
60852;BME280;48553;50.766;2.900;2022-12-07T08:37:41;101304.53;;;4.78;90.25
60852;BME280;48553;50.766;2.900;2022-12-07T08:40:41;101302.88;;;4.82;90.34
60852;BME280;48553;50.766;2.900;2022-12-07T08:43:42;101319.72;;;4.84;90.25
60852;BME280;48553;50.766;2.900;2022-12-07T08:46:51;101317.53;;;4.81;90.33
60852;BME280;48553;50.766;2.900;2022-12-07T08:49:54;101320.56;;;4.79;90.68
60852;BME280;48553;50.766;2.900;2022-12-07T08:52:57;101322.75;;;4.77;90.82
60852;BME280;48553;50.766;2.900;2022-12-07T08:55:58;101322.44;;;4.79;90.99
60852;BME280;48553;50.766;2.900;2022-12-07T08:58:58;101325.16;;;4.79;90.96
60852;BME280;48553;50.766;2.900;2022-12-07T09:01:59;101318.38;;;4.81;91.17
60852;BME280;48553;50.766;2.900;2022-12-07T09:05:00;101315.66;;;4.81;91.33
60852;BME280;48553;50.766;2.900;2022-12-07T09:08:01;101311.84;;;4.82;91.04
60852;BME280;48553;50.766;2.900;2022-12-07T09:11:02;101314.28;;;4.84;91.27
60852;BME280;48553;50.766;2.900;2022-12-07T09:14:03;101306.13;;;4.84;91.20
60852;BME280;48553;50.766;2.900;2022-12-07T09:17:07;101310.44;;;4.85;91.42
60852;BME280;48553;50.766;2.900;2022-12-07T09:20:09;101302.31;;;4.85;91.39
60852;BME280;48553;50.766;2.900;2022-12-07T09:23:09;101299.31;;;4.87;91.41
60852;BME280;48553;50.766;2.900;2022-12-07T09:26:09;101301.72;;;4.88;91.70
60852;BME280;48553;50.766;2.900;2022-12-07T09:29:10;101298.22;;;4.88;91.78
60852;BME280;48553;50.766;2.900;2022-12-07T09:32:10;101305.56;;;4.87;91.97
60852;BME280;48553;50.766;2.900;2022-12-07T09:35:11;101299.84;;;4.89;91.66
60852;BME280;48553;50.766;2.900;2022-12-07T09:38:12;101300.91;;;4.93;91.53
60852;BME280;48553;50.766;2.900;2022-12-07T09:41:13;101294.63;;;4.92;91.64
60852;BME280;48553;50.766;2.900;2022-12-07T09:44:24;101304.44;;;4.93;91.83
60852;BME280;48553;50.766;2.900;2022-12-07T09:47:25;101300.59;;;4.94;91.69
60852;BME280;48553;50.766;2.900;2022-12-07T09:50:28;101287.56;;;4.96;91.81
60852;BME280;48553;50.766;2.900;2022-12-07T09:53:34;101292.97;;;4.96;91.74
60852;BME280;48553;50.766;2.900;2022-12-07T09:56:36;101291.06;;;5.02;91.41
60852;BME280;48553;50.766;2.900;2022-12-07T09:59:36;101289.13;;;5.02;91.50
60852;BME280;48553;50.766;2.900;2022-12-07T10:02:39;101285.88;;;5.00;91.53
60852;BME280;48553;50.766;2.900;2022-12-07T10:05:44;101296.19;;;5.03;91.47
60852;BME280;48553;50.766;2.900;2022-12-07T10:08:46;101295.91;;;5.05;91.50
60852;BME280;48553;50.766;2.900;2022-12-07T10:12:03;101290.13;;;5.12;91.66
60852;BME280;48553;50.766;2.900;2022-12-07T10:15:04;101279.81;;;5.14;91.46
60852;BME280;48553;50.766;2.900;2022-12-07T10:18:21;101277.31;;;5.17;91.41
60852;BME280;48553;50.766;2.900;2022-12-07T10:21:26;101279.75;;;5.19;91.51
60852;BME280;48553;50.766;2.900;2022-12-07T10:24:26;101282.19;;;5.20;91.39
60852;BME280;48553;50.766;2.900;2022-12-07T10:27:31;101276.44;;;5.22;91.59
60852;BME280;48553;50.766;2.900;2022-12-07T10:30:33;101282.59;;;5.33;91.24
60852;BME280;48553;50.766;2.900;2022-12-07T10:33:37;101271.63;;;5.91;89.15
60852;BME280;48553;50.766;2.900;2022-12-07T10:36:38;101277.03;;;5.96;88.42
60852;BME280;48553;50.766;2.900;2022-12-07T10:43:21;101253.06;;;7.21;83.78
60852;BME280;48553;50.766;2.900;2022-12-07T10:46:47;101250.97;;;7.59;82.16
60852;BME280;48553;50.766;2.900;2022-12-07T10:57:22;101242.06;;;7.40;82.92
60852;BME280;48553;50.766;2.900;2022-12-07T11:00:39;101228.91;;;7.83;82.11
60852;BME280;48553;50.766;2.900;2022-12-07T11:04:29;101220.38;;;8.12;81.12
60852;BME280;48553;50.766;2.900;2022-12-07T11:07:55;101221.72;;;8.01;81.24
60852;BME280;48553;50.766;2.900;2022-12-07T11:11:23;101222.25;;;7.89;81.95
60852;BME280;48553;50.766;2.900;2022-12-07T11:14:56;101211.34;;;7.76;82.42
60852;BME280;48553;50.766;2.900;2022-12-07T11:34:56;101208.28;;;6.94;84.87
60852;BME280;48553;50.766;2.900;2022-12-07T11:38:08;101196.38;;;6.90;85.12
60852;BME280;48553;50.766;2.900;2022-12-07T11:41:10;101192.94;;;6.84;85.28
60852;BME280;48553;50.766;2.900;2022-12-07T11:47:45;101185.25;;;6.73;85.97
60852;BME280;48553;50.766;2.900;2022-12-07T11:50:54;101185.03;;;6.69;86.11
60852;BME280;48553;50.766;2.900;2022-12-07T11:54:03;101180.47;;;6.64;86.02
60852;BME280;48553;50.766;2.900;2022-12-07T12:00:29;101169.69;;;6.59;86.82
60852;BME280;48553;50.766;2.900;2022-12-07T12:03:33;101168.25;;;6.62;86.67
60852;BME280;48553;50.766;2.900;2022-12-07T12:06:40;101173.22;;;6.74;86.55
60852;BME280;48553;50.766;2.900;2022-12-07T12:10:05;101163.34;;;6.78;86.49
60852;BME280;48553;50.766;2.900;2022-12-07T12:19:40;101158.34;;;6.99;85.84
60852;BME280;48553;50.766;2.900;2022-12-07T12:22:48;101150.03;;;6.90;86.01
60852;BME280;48553;50.766;2.900;2022-12-07T12:25:55;101151.78;;;6.86;86.52
60852;BME280;48553;50.766;2.900;2022-12-07T12:28:59;101151.97;;;6.89;86.06
60852;BME280;48553;50.766;2.900;2022-12-07T12:32:16;101149.25;;;7.03;85.76
60852;BME280;48553;50.766;2.900;2022-12-07T12:38:32;101157.72;;;6.88;86.20
60852;BME280;48553;50.766;2.900;2022-12-07T12:45:17;101144.38;;;6.73;86.83
60852;BME280;48553;50.766;2.900;2022-12-07T12:48:28;101137.91;;;6.68;87.55
60852;BME280;48553;50.766;2.900;2022-12-07T12:51:37;101130.34;;;6.65;87.96
60852;BME280;48553;50.766;2.900;2022-12-07T12:54:58;101133.88;;;6.66;87.80
60852;BME280;48553;50.766;2.900;2022-12-07T13:01:36;101117.53;;;6.66;87.53
60852;BME280;48553;50.766;2.900;2022-12-07T13:04:51;101122.66;;;6.67;87.11
60852;BME280;48553;50.766;2.900;2022-12-07T13:08:11;101114.72;;;6.71;87.18
60852;BME280;48553;50.766;2.900;2022-12-07T13:14:39;101107.47;;;6.94;86.75
60852;BME280;48553;50.766;2.900;2022-12-07T13:24:10;101104.84;;;6.89;86.24
60852;BME280;48553;50.766;2.900;2022-12-07T13:27:12;101105.75;;;6.84;87.46
60852;BME280;48553;50.766;2.900;2022-12-07T13:30:19;101100.50;;;6.74;87.42
60852;BME280;48553;50.766;2.900;2022-12-07T13:33:20;101099.50;;;6.70;87.74
60852;BME280;48553;50.766;2.900;2022-12-07T13:36:56;101089.50;;;6.65;87.97
60852;BME280;48553;50.766;2.900;2022-12-07T13:40:00;101099.38;;;6.61;87.95
60852;BME280;48553;50.766;2.900;2022-12-07T13:43:04;101087.47;;;6.57;88.44
60852;BME280;48553;50.766;2.900;2022-12-07T13:46:08;101085.34;;;6.54;88.27
60852;BME280;48553;50.766;2.900;2022-12-07T13:49:29;101076.69;;;6.52;88.24
60852;BME280;48553;50.766;2.900;2022-12-07T13:52:31;101083.22;;;6.65;87.71
60852;BME280;48553;50.766;2.900;2022-12-07T13:55:32;101076.69;;;6.66;87.46
60852;BME280;48553;50.766;2.900;2022-12-07T13:58:33;101076.59;;;6.71;87.35
60852;BME280;48553;50.766;2.900;2022-12-07T14:01:33;101085.47;;;6.77;87.29
60852;BME280;48553;50.766;2.900;2022-12-07T14:04:36;101070.97;;;6.81;87.01
60852;BME280;48553;50.766;2.900;2022-12-07T14:07:52;101067.41;;;6.81;87.06
60852;BME280;48553;50.766;2.900;2022-12-07T14:10:55;101068.22;;;6.81;87.00
60852;BME280;48553;50.766;2.900;2022-12-07T14:13:59;101058.13;;;6.82;87.14
60852;BME280;48553;50.766;2.900;2022-12-07T14:17:19;101063.88;;;6.80;87.07
60852;BME280;48553;50.766;2.900;2022-12-07T14:20:36;101053.38;;;6.74;87.10
60852;BME280;48553;50.766;2.900;2022-12-07T14:23:38;101055.91;;;6.70;87.50
60852;BME280;48553;50.766;2.900;2022-12-07T14:26:39;101052.69;;;6.68;87.94
60852;BME280;48553;50.766;2.900;2022-12-07T14:29:40;101044.00;;;6.66;87.81
60852;BME280;48553;50.766;2.900;2022-12-07T14:32:41;101043.50;;;6.64;87.95
60852;BME280;48553;50.766;2.900;2022-12-07T14:35:43;101034.31;;;6.60;87.92
60852;BME280;48553;50.766;2.900;2022-12-07T14:38:43;101038.16;;;6.59;88.13
60852;BME280;48553;50.766;2.900;2022-12-07T14:41:44;101032.22;;;6.57;87.82
60852;BME280;48553;50.766;2.900;2022-12-07T14:44:53;101048.03;;;6.55;88.08
60852;BME280;48553;50.766;2.900;2022-12-07T14:47:53;101041.78;;;6.54;88.04
60852;BME280;48553;50.766;2.900;2022-12-07T14:50:54;101042.38;;;6.51;88.02
60852;BME280;48553;50.766;2.900;2022-12-07T14:53:54;101043.78;;;6.48;88.33
60852;BME280;48553;50.766;2.900;2022-12-07T14:56:55;101042.97;;;6.48;88.17
60852;BME280;48553;50.766;2.900;2022-12-07T14:59:55;101044.41;;;6.45;88.15
60852;BME280;48553;50.766;2.900;2022-12-07T15:02:56;101034.09;;;6.42;88.39
60852;BME280;48553;50.766;2.900;2022-12-07T15:05:57;101032.19;;;6.43;88.36
60852;BME280;48553;50.766;2.900;2022-12-07T15:08:58;101037.41;;;6.39;88.35
60852;BME280;48553;50.766;2.900;2022-12-07T15:11:58;101030.38;;;6.38;88.25
60852;BME280;48553;50.766;2.900;2022-12-07T15:14:58;101025.22;;;6.37;88.00
60852;BME280;48553;50.766;2.900;2022-12-07T15:18:01;101022.28;;;6.33;87.95
60852;BME280;48553;50.766;2.900;2022-12-07T15:21:01;101015.34;;;6.27;87.85
60852;BME280;48553;50.766;2.900;2022-12-07T15:24:02;101025.41;;;6.26;87.75
60852;BME280;48553;50.766;2.900;2022-12-07T15:27:02;101023.56;;;6.22;87.79
60852;BME280;48553;50.766;2.900;2022-12-07T15:30:03;101020.34;;;6.20;87.83
60852;BME280;48553;50.766;2.900;2022-12-07T15:33:04;101018.75;;;6.19;87.57
60852;BME280;48553;50.766;2.900;2022-12-07T15:36:05;101015.00;;;6.15;87.31
60852;BME280;48553;50.766;2.900;2022-12-07T15:39:05;101028.41;;;6.11;87.38
60852;BME280;48553;50.766;2.900;2022-12-07T15:42:06;101024.94;;;6.05;87.15
60852;BME280;48553;50.766;2.900;2022-12-07T15:45:07;101025.75;;;6.06;87.20
60852;BME280;48553;50.766;2.900;2022-12-07T15:48:09;101016.28;;;6.03;86.87
60852;BME280;48553;50.766;2.900;2022-12-07T15:51:09;101012.53;;;5.99;87.05
60852;BME280;48553;50.766;2.900;2022-12-07T15:54:22;101007.41;;;5.98;86.90
60852;BME280;48553;50.766;2.900;2022-12-07T15:57:22;101006.91;;;5.96;86.93
60852;BME280;48553;50.766;2.900;2022-12-07T16:00:23;101005.03;;;5.91;86.49
60852;BME280;48553;50.766;2.900;2022-12-07T16:03:23;101013.19;;;5.91;86.55
60852;BME280;48553;50.766;2.900;2022-12-07T16:06:24;101003.50;;;5.85;86.48
60852;BME280;48553;50.766;2.900;2022-12-07T16:09:24;101008.75;;;5.81;86.61
60852;BME280;48553;50.766;2.900;2022-12-07T16:12:25;100991.91;;;5.79;86.52
60852;BME280;48553;50.766;2.900;2022-12-07T16:15:25;101003.88;;;5.78;86.60
60852;BME280;48553;50.766;2.900;2022-12-07T16:18:27;100999.56;;;5.77;86.39
60852;BME280;48553;50.766;2.900;2022-12-07T16:21:27;100998.25;;;5.75;86.57
60852;BME280;48553;50.766;2.900;2022-12-07T16:24:27;100988.25;;;5.70;86.61
60852;BME280;48553;50.766;2.900;2022-12-07T16:27:28;100992.06;;;5.69;86.39
60852;BME280;48553;50.766;2.900;2022-12-07T16:30:28;100992.06;;;5.69;86.32
60852;BME280;48553;50.766;2.900;2022-12-07T16:33:29;100979.88;;;5.67;86.46
60852;BME280;48553;50.766;2.900;2022-12-07T16:36:29;100993.56;;;5.61;86.25
60852;BME280;48553;50.766;2.900;2022-12-07T16:39:29;100998.47;;;5.59;86.33
60852;BME280;48553;50.766;2.900;2022-12-07T16:42:34;100989.53;;;5.59;86.63
60852;BME280;48553;50.766;2.900;2022-12-07T16:45:36;100991.22;;;5.55;86.32
60852;BME280;48553;50.766;2.900;2022-12-07T16:48:38;100980.34;;;5.55;86.33
60852;BME280;48553;50.766;2.900;2022-12-07T16:51:39;100991.78;;;5.52;86.16
60852;BME280;48553;50.766;2.900;2022-12-07T16:54:39;100979.59;;;5.49;86.12
60852;BME280;48553;50.766;2.900;2022-12-07T16:57:40;100987.75;;;5.49;85.93
60852;BME280;48553;50.766;2.900;2022-12-07T17:00:41;100986.75;;;5.45;86.17
60852;BME280;48553;50.766;2.900;2022-12-07T17:03:42;100983.81;;;5.41;86.03
60852;BME280;48553;50.766;2.900;2022-12-07T17:06:43;100975.13;;;5.39;86.08
60852;BME280;48553;50.766;2.900;2022-12-07T17:09:43;100980.06;;;5.37;85.91
60852;BME280;48553;50.766;2.900;2022-12-07T17:12:44;100981.69;;;5.38;85.79
60852;BME280;48553;50.766;2.900;2022-12-07T17:16:03;100981.16;;;5.36;85.77
60852;BME280;48553;50.766;2.900;2022-12-07T17:19:06;100977.94;;;5.34;85.85
60852;BME280;48553;50.766;2.900;2022-12-07T17:22:07;100981.22;;;5.31;85.75
60852;BME280;48553;50.766;2.900;2022-12-07T17:25:07;100984.25;;;5.30;85.59
60852;BME280;48553;50.766;2.900;2022-12-07T17:28:08;100970.16;;;5.28;85.85
60852;BME280;48553;50.766;2.900;2022-12-07T17:31:15;100969.13;;;5.23;85.69
60852;BME280;48553;50.766;2.900;2022-12-07T17:34:16;100967.81;;;5.21;85.72
60852;BME280;48553;50.766;2.900;2022-12-07T17:37:16;100972.44;;;5.20;85.49
60852;BME280;48553;50.766;2.900;2022-12-07T17:40:17;100960.25;;;5.18;85.67
60852;BME280;48553;50.766;2.900;2022-12-07T17:43:17;100947.25;;;5.15;85.41